Time;durP1;ratioP1;P1;durP2;ratioP2;P2;SDS_P1;SDS_P2;PMS_P1;PMS_P2;Temp;Humidity;BMP_temperature;BMP_pressure;BME280_temperature;BME280_humidity;BME280_pressure;Samples;Min_cycle;Max_cycle;Signal;HPM_P1;HPM_P2
2023/03/26 00:01:57;;;;;;;;;;;;;;;22.24;28.90;97008.81;4980110;28;1013;-75
2023/03/26 00:04:24;;;;;;;;;;;;;;;22.10;29.19;96995.25;4947807;28;1272;-74
2023/03/26 00:06:50;;;;;;;;;;;;;;;21.83;29.54;97001.69;4980136;28;1907;-76
2023/03/26 00:09:15;;;;;;;;;;;;;;;21.82;29.56;97005.78;4980698;28;1041;-74
2023/03/26 00:11:41;;;;;;;;;;;;;;;21.94;29.69;97004.06;4980110;28;1031;-74
2023/03/26 00:14:08;;;;;;;;;;;;;;;22.10;29.55;97009.41;4964158;28;1028;-74
2023/03/26 00:16:34;;;;;;;;;;;;;;;22.31;29.01;97007.69;4963916;28;1070;-75
2023/03/26 00:19:00;;;;;;;;;;;;;;;22.12;29.12;97001.25;4963904;28;1233;-75
2023/03/26 00:21:26;;;;;;;;;;;;;;;21.92;29.57;97003.75;4963916;28;927;-74
2023/03/26 00:23:54;;;;;;;;;;;;;;;21.76;29.46;97005.63;4964185;28;1129;-74
2023/03/26 00:26:19;;;;;;;;;;;;;;;22.18;29.63;97007.09;4963860;28;1902;-75
2023/03/26 00:28:45;;;;;;;;;;;;;;;22.33;29.38;97000.31;4963945;28;1158;-75
2023/03/26 00:31:11;;;;;;;;;;;;;;;22.29;29.35;97004.56;4979879;28;1039;-74
2023/03/26 00:33:37;;;;;;;;;;;;;;;22.18;29.32;96996.53;4980100;28;1311;-75
2023/03/26 00:36:04;;;;;;;;;;;;;;;22.01;29.40;96996.03;4952548;28;1505;-74
2023/03/26 00:38:30;;;;;;;;;;;;;;;22.03;29.37;96998.41;4952551;28;1087;-74
2023/03/26 00:40:58;;;;;;;;;;;;;;;21.61;29.95;96999.00;4984365;28;965;-74
2023/03/26 00:43:25;;;;;;;;;;;;;;;22.10;29.88;97006.56;4983522;28;1233;-75
2023/03/26 00:45:51;;;;;;;;;;;;;;;22.41;29.14;96995.09;4964535;28;1914;-75
2023/03/26 00:48:17;;;;;;;;;;;;;;;22.51;29.05;96996.63;4981067;28;960;-75
2023/03/26 00:50:43;;;;;;;;;;;;;;;21.89;29.65;96999.03;4981538;28;942;-75
2023/03/26 00:53:10;;;;;;;;;;;;;;;21.92;29.64;96996.03;4965311;28;994;-75
2023/03/26 00:55:36;;;;;;;;;;;;;;;21.69;29.89;97008.75;4960393;28;1101;-74
2023/03/26 00:58:02;;;;;;;;;;;;;;;22.12;29.81;97001.25;4960608;28;1212;-74
2023/03/26 01:00:28;;;;;;;;;;;;;;;22.17;29.58;97003.44;4960134;28;1121;-74
2023/03/26 01:02:54;;;;;;;;;;;;;;;22.10;29.61;97006.56;4976592;28;1293;-74
2023/03/26 01:05:41;;;;;;;;;;;;;;;21.97;29.58;97000.28;4976456;28;960;-75
2023/03/26 01:08:25;;;;;;;;;;;;;;;21.87;29.54;97002.34;4960369;28;1122;-74
2023/03/26 01:10:51;;;;;;;;;;;;;;;21.65;29.97;96996.78;4960316;28;1094;-75
2023/03/26 01:13:20;;;;;;;;;;;;;;;22.03;30.05;97001.25;4960325;28;1122;-75
2023/03/26 01:15:49;;;;;;;;;;;;;;;22.39;29.11;96996.84;4976187;28;1023;-75
2023/03/26 01:18:25;;;;;;;;;;;;;;;22.44;28.89;97001.88;4960267;28;992;-74
2023/03/26 01:20:51;;;;;;;;;;;;;;;22.02;29.03;97002.47;4976316;28;979;-75
2023/03/26 01:23:19;;;;;;;;;;;;;;;21.85;29.26;96999.94;4976417;28;1106;-74
2023/03/26 01:25:46;;;;;;;;;;;;;;;21.94;29.35;97001.22;4979778;28;1989;-74
2023/03/26 01:28:12;;;;;;;;;;;;;;;21.96;29.59;97010.03;4959927;28;1219;-75
2023/03/26 01:30:42;;;;;;;;;;;;;;;22.04;29.11;97017.75;4976249;28;950;-74
2023/03/26 01:33:19;;;;;;;;;;;;;;;21.63;29.63;97016.28;4975910;28;989;-76
2023/03/26 01:35:45;;;;;;;;;;;;;;;21.66;29.27;97023.84;4975928;28;983;-75
2023/03/26 01:38:13;;;;;;;;;;;;;;;21.88;28.80;97011.63;4959958;28;1010;-75
2023/03/26 01:40:45;;;;;;;;;;;;;;;21.87;29.38;97001.53;4959758;28;1354;-75
2023/03/26 01:43:20;;;;;;;;;;;;;;;22.18;28.71;97012.75;4943726;28;1102;-74
2023/03/26 01:45:46;;;;;;;;;;;;;;;22.45;28.25;97009.09;4959622;28;1906;-74
2023/03/26 01:48:12;;;;;;;;;;;;;;;22.44;28.54;97004.69;4975655;28;1014;-75
2023/03/26 01:50:37;;;;;;;;;;;;;;;22.05;28.67;97008.00;4975930;28;940;-75
2023/03/26 01:53:03;;;;;;;;;;;;;;;21.89;28.93;97004.69;4975555;28;1215;-74
2023/03/26 01:55:33;;;;;;;;;;;;;;;21.63;29.32;97002.13;4975249;28;1004;-75
2023/03/26 01:58:07;;;;;;;;;;;;;;;21.56;29.60;97006.06;4959701;28;1117;-75
2023/03/26 02:00:54;;;;;;;;;;;;;;;22.32;28.66;96998.72;4979947;28;1374;-75
2023/03/26 02:03:29;;;;;;;;;;;;;;;22.54;28.42;96997.75;4979778;28;1202;-74
2023/03/26 02:06:01;;;;;;;;;;;;;;;21.97;28.80;97000.28;4979786;28;1987;-75
2023/03/26 02:08:30;;;;;;;;;;;;;;;21.60;29.76;97000.22;4979733;28;1255;-74
2023/03/26 02:10:56;;;;;;;;;;;;;;;21.65;29.65;97008.09;4963938;28;1351;-74
2023/03/26 02:13:22;;;;;;;;;;;;;;;21.84;29.59;97020.25;4979600;28;951;-75
2023/03/26 02:15:57;;;;;;;;;;;;;;;22.29;28.61;97008.19;4963534;28;1207;-75
2023/03/26 02:18:23;;;;;;;;;;;;;;;22.42;28.76;97012.88;4963692;28;1250;-74
2023/03/26 02:20:51;;;;;;;;;;;;;;;22.01;28.89;97006.56;4979471;28;1109;-75
2023/03/26 02:23:19;;;;;;;;;;;;;;;21.90;28.80;97006.25;4979525;28;1455;-75
2023/03/26 02:25:45;;;;;;;;;;;;;;;21.89;28.94;97002.63;4963659;28;1981;-74
2023/03/26 02:28:10;;;;;;;;;;;;;;;22.07;29.25;97007.50;4947436;28;1200;-74
2023/03/26 02:30:36;;;;;;;;;;;;;;;22.10;29.21;97004.56;4979516;28;1588;-74
2023/03/26 02:33:02;;;;;;;;;;;;;;;22.25;28.91;97010.38;4979680;28;1255;-74
2023/03/26 02:35:37;;;;;;;;;;;;;;;21.97;29.32;97000.28;4979255;28;1196;-74
2023/03/26 02:38:03;;;;;;;;;;;;;;;21.83;29.58;96996.81;4979290;28;1098;-75
2023/03/26 02:40:28;;;;;;;;;;;;;;;21.71;29.35;97000.59;4979380;28;1350;-75
2023/03/26 02:42:55;;;;;;;;;;;;;;;21.71;29.77;97005.44;4979072;28;1161;-75
2023/03/26 02:45:21;;;;;;;;;;;;;;;22.22;29.03;97010.53;4979010;28;1114;-75
2023/03/26 02:48:05;;;;;;;;;;;;;;;22.17;29.12;97009.13;4996222;28;887;-75
2023/03/26 02:50:37;;;;;;;;;;;;;;;22.35;28.53;97014.78;4964990;28;940;-75
2023/03/26 02:53:28;;;;;;;;;;;;;;;21.78;29.42;97022.13;4935823;29;1146;-75
2023/03/26 02:56:06;;;;;;;;;;;;;;;21.70;29.28;97020.84;4920145;29;1157;-75
2023/03/26 02:58:39;;;;;;;;;;;;;;;21.55;29.64;97009.34;4935989;29;1060;-74
2023/03/26 03:01:06;;;;;;;;;;;;;;;22.19;28.76;97000.16;4920464;29;1177;-74
2023/03/26 03:03:46;;;;;;;;;;;;;;;22.46;28.22;97008.63;4921627;29;1252;-74
2023/03/26 03:06:29;;;;;;;;;;;;;;;22.19;28.69;97011.50;4935352;29;1985;-75
2023/03/26 03:08:56;;;;;;;;;;;;;;;21.91;28.93;97013.50;4919745;29;1199;-75
2023/03/26 03:11:49;;;;;;;;;;;;;;;21.90;28.79;97011.91;4891474;29;1089;-74
2023/03/26 03:14:14;;;;;;;;;;;;;;;21.89;28.84;97021.69;4879415;29;1255;-75
2023/03/26 03:16:41;;;;;;;;;;;;;;;22.16;28.92;97018.88;4879492;29;1313;-74
2023/03/26 03:19:10;;;;;;;;;;;;;;;22.30;28.48;97023.91;4894808;29;1102;-75
2023/03/26 03:21:37;;;;;;;;;;;;;;;22.00;28.56;97022.78;4879047;29;1145;-74
2023/03/26 03:24:03;;;;;;;;;;;;;;;21.89;29.05;97027.34;4878954;29;1274;-74
2023/03/26 03:26:33;;;;;;;;;;;;;;;21.75;29.26;97009.69;4863571;29;1915;-76
2023/03/26 03:29:11;;;;;;;;;;;;;;;22.02;29.16;97019.47;4893021;29;1574;-76
2023/03/26 03:31:37;;;;;;;;;;;;;;;22.13;28.89;97021.88;4917372;29;1277;-74
2023/03/26 03:34:07;;;;;;;;;;;;;;;22.29;28.81;97028.00;4902865;29;1228;-74
2023/03/26 03:36:37;;;;;;;;;;;;;;;22.06;28.55;97045.59;4918831;29;1271;-75
2023/03/26 03:39:10;;;;;;;;;;;;;;;21.87;29.04;97035.53;4918234;29;1355;-74
2023/03/26 03:41:36;;;;;;;;;;;;;;;21.56;29.53;97050.56;4916509;29;1141;-74
2023/03/26 03:44:04;;;;;;;;;;;;;;;21.89;29.09;97050.78;4888283;29;1760;-75
2023/03/26 03:46:32;;;;;;;;;;;;;;;22.24;28.68;97048.47;4909670;29;1923;-75
2023/03/26 03:48:57;;;;;;;;;;;;;;;22.55;28.22;97050.34;4960897;28;1186;-74
2023/03/26 03:51:31;;;;;;;;;;;;;;;22.55;28.46;97058.84;4967757;28;1134;-74
2023/03/26 03:54:17;;;;;;;;;;;;;;;22.01;28.86;97058.34;4992682;28;1072;-75
2023/03/26 03:56:46;;;;;;;;;;;;;;;21.91;28.84;97081.47;4993346;28;966;-75
2023/03/26 03:59:35;;;;;;;;;;;;;;;21.95;29.26;97065.09;4977186;28;1251;-75
2023/03/26 04:02:04;;;;;;;;;;;;;;;22.22;28.87;97056.66;4972991;28;1415;-74
2023/03/26 04:04:36;;;;;;;;;;;;;;;22.53;28.20;97058.53;4972984;28;1223;-74
2023/03/26 04:07:04;;;;;;;;;;;;;;;22.03;28.83;97038.84;4973096;28;1915;-74
2023/03/26 04:09:45;;;;;;;;;;;;;;;21.92;28.92;97051.91;4973631;28;1459;-74
2023/03/26 04:12:15;;;;;;;;;;;;;;;21.71;29.33;97040.22;4973525;28;1513;-75
2023/03/26 04:14:48;;;;;;;;;;;;;;;22.06;29.46;97031.44;4974793;28;1667;-74
2023/03/26 04:17:16;;;;;;;;;;;;;;;22.40;28.90;97029.59;4976016;28;1523;-75
2023/03/26 04:19:43;;;;;;;;;;;;;;;22.51;28.54;97027.81;4995627;28;1134;-74
2023/03/26 04:22:10;;;;;;;;;;;;;;;21.82;29.29;97037.72;4963520;28;1526;-75
2023/03/26 04:24:48;;;;;;;;;;;;;;;22.09;28.75;97027.66;4923590;29;1434;-75
2023/03/26 04:27:27;;;;;;;;;;;;;;;21.84;29.30;97040.06;4943482;29;1910;-75
2023/03/26 04:29:59;;;;;;;;;;;;;;;22.14;29.66;97038.41;4926809;29;1469;-75
2023/03/26 04:32:32;;;;;;;;;;;;;;;22.41;29.31;97051.78;4933846;29;1122;-74
2023/03/26 04:34:59;;;;;;;;;;;;;;;22.21;29.52;97060.75;4900603;29;1307;-75
2023/03/26 04:37:27;;;;;;;;;;;;;;;22.00;30.08;97056.00;4900278;29;1324;-75
2023/03/26 04:40:07;;;;;;;;;;;;;;;22.09;29.68;97070.16;4900680;29;1288;-74
2023/03/26 04:42:53;;;;;;;;;;;;;;;21.91;30.00;97061.63;4900766;29;1010;-75
2023/03/26 04:45:40;;;;;;;;;;;;;;;22.26;30.33;97062.94;4900445;29;1211;-74
2023/03/26 04:48:07;;;;;;;;;;;;;;;22.52;30.12;97073.97;4898524;29;2032;-74
2023/03/26 04:50:32;;;;;;;;;;;;;;;22.18;30.23;97078.72;4907941;29;1810;-74
2023/03/26 04:52:58;;;;;;;;;;;;;;;22.06;30.43;97073.94;4916259;29;1280;-75
2023/03/26 04:56:08;;;;;;;;;;;;;;;21.95;30.62;97076.44;4900264;29;1594;-75
2023/03/26 04:59:00;;;;;;;;;;;;;;;21.72;30.75;97083.47;4789819;30;1130;-74
2023/03/26 05:01:29;;;;;;;;;;;;;;;21.87;31.07;97095.00;4736698;30;1181;-74
2023/03/26 05:03:55;;;;;;;;;;;;;;;22.31;30.68;97082.16;4736637;30;1244;-74
2023/03/26 05:06:22;;;;;;;;;;;;;;;22.43;30.15;97096.66;4725237;30;1912;-74
2023/03/26 05:08:47;;;;;;;;;;;;;;;22.02;30.27;97110.13;4733774;30;1225;-74
2023/03/26 05:11:29;;;;;;;;;;;;;;;21.98;30.35;97107.44;4746455;30;1196;-75
2023/03/26 05:13:56;;;;;;;;;;;;;;;21.90;30.22;97119.53;4719406;30;1454;-74
2023/03/26 05:16:22;;;;;;;;;;;;;;;21.89;30.16;97112.31;4733686;30;1196;-74
2023/03/26 05:19:04;;;;;;;;;;;;;;;21.97;30.77;97119.25;4729149;30;1580;-74
2023/03/26 05:21:33;;;;;;;;;;;;;;;22.11;30.30;97115.81;4750703;30;1383;-74
2023/03/26 05:23:59;;;;;;;;;;;;;;;22.31;29.99;97138.84;4762198;30;1445;-74
2023/03/26 05:26:25;;;;;;;;;;;;;;;22.03;30.21;97137.22;4756611;30;1977;-74
2023/03/26 05:28:50;;;;;;;;;;;;;;;21.93;30.11;97129.94;4771704;30;1473;-75
2023/03/26 05:31:20;;;;;;;;;;;;;;;21.62;30.36;97127.97;4773490;29;1446;-75
2023/03/26 05:33:48;;;;;;;;;;;;;;;21.65;30.65;97129.84;4825620;29;1326;-74
2023/03/26 05:36:14;;;;;;;;;;;;;;;21.97;30.29;97136.25;4927763;28;1270;-75
2023/03/26 05:38:48;;;;;;;;;;;;;;;22.42;29.35;97131.91;4965646;28;1494;-74
2023/03/26 05:41:25;;;;;;;;;;;;;;;21.94;29.81;97134.34;4975020;28;1503;-74
2023/03/26 05:43:51;;;;;;;;;;;;;;;21.92;29.54;97117.03;4919599;29;1123;-74
2023/03/26 05:46:22;;;;;;;;;;;;;;;21.78;29.96;97113.53;4906533;29;1956;-75
2023/03/26 05:48:48;;;;;;;;;;;;;;;21.77;30.02;97111.19;4907150;29;1449;-75
2023/03/26 05:51:14;;;;;;;;;;;;;;;22.11;29.96;97101.66;4938775;29;1507;-75
2023/03/26 05:53:46;;;;;;;;;;;;;;;22.30;29.78;97091.94;4941350;29;1266;-74
2023/03/26 05:56:30;;;;;;;;;;;;;;;22.10;30.13;97111.41;4956212;29;964;-75
2023/03/26 05:59:15;;;;;;;;;;;;;;;21.78;30.29;97112.75;4936574;29;1438;-75
2023/03/26 06:01:58;;;;;;;;;;;;;;;21.96;29.88;97126.16;4937152;29;984;-74
2023/03/26 06:04:44;;;;;;;;;;;;;;;21.85;29.88;97130.22;4923188;29;1195;-75
2023/03/26 06:07:32;;;;;;;;;;;;;;;22.05;30.49;97131.84;4898994;29;1902;-75
2023/03/26 06:10:24;;;;;;;;;;;;;;;22.19;30.28;97141.81;4880165;29;1105;-75
2023/03/26 06:12:51;;;;;;;;;;;;;;;22.01;30.20;97139.69;4865123;29;1282;-75
2023/03/26 06:15:17;;;;;;;;;;;;;;;22.04;30.05;97141.59;4880246;29;1514;-75
2023/03/26 06:17:51;;;;;;;;;;;;;;;21.92;29.86;97139.69;4884443;29;1150;-74
2023/03/26 06:20:36;;;;;;;;;;;;;;;21.92;30.17;97140.50;4906496;29;994;-75
2023/03/26 06:23:08;;;;;;;;;;;;;;;22.22;29.72;97130.31;4890958;29;1346;-75
2023/03/26 06:26:12;;;;;;;;;;;;;;;22.12;29.82;97142.91;4869276;29;1910;-75
2023/03/26 06:28:40;;;;;;;;;;;;;;;21.95;29.62;97150.06;4879160;29;1435;-74
2023/03/26 06:31:22;;;;;;;;;;;;;;;21.76;29.73;97144.38;4861235;29;1332;-75
2023/03/26 06:34:10;;;;;;;;;;;;;;;21.83;29.60;97152.56;4861456;29;1159;-75
2023/03/26 06:36:35;;;;;;;;;;;;;;;21.71;30.18;97147.81;4861461;29;1079;-74
2023/03/26 06:39:01;;;;;;;;;;;;;;;22.00;30.15;97152.28;4845863;29;1451;-75
2023/03/26 06:41:27;;;;;;;;;;;;;;;22.37;29.49;97153.16;4845362;29;1433;-75
2023/03/26 06:44:12;;;;;;;;;;;;;;;21.92;29.74;97153.88;4850365;29;1582;-75
2023/03/26 06:47:03;;;;;;;;;;;;;;;21.93;29.62;97155.44;4858740;29;1903;-74
2023/03/26 06:49:52;;;;;;;;;;;;;;;21.67;29.92;97164.16;4861002;29;1010;-74
2023/03/26 06:52:27;;;;;;;;;;;;;;;21.90;29.53;97154.31;4842378;29;1000;-75
2023/03/26 06:55:21;;;;;;;;;;;;;;;22.25;29.77;97159.78;4824183;29;1022;-74
2023/03/26 06:58:00;;;;;;;;;;;;;;;22.31;29.27;97155.06;4844434;29;1552;-75
2023/03/26 07:01:04;;;;;;;;;;;;;;;22.03;29.76;97162.69;4851588;29;974;-75
2023/03/26 07:03:48;;;;;;;;;;;;;;;21.90;29.81;97162.03;4824233;29;1052;-75
2023/03/26 07:06:32;;;;;;;;;;;;;;;21.82;29.74;97176.47;4836988;29;1903;-74
2023/03/26 07:09:16;;;;;;;;;;;;;;;21.90;29.67;97182.63;4837071;29;978;-75
2023/03/26 07:12:20;;;;;;;;;;;;;;;21.84;30.21;97168.28;4840253;29;1285;-74
2023/03/26 07:15:14;;;;;;;;;;;;;;;22.22;29.75;97174.88;4824241;29;958;-75
2023/03/26 07:17:58;;;;;;;;;;;;;;;22.33;29.73;97170.34;4824168;29;953;-75
2023/03/26 07:20:29;;;;;;;;;;;;;;;21.95;30.02;97172.75;4824186;29;1047;-74
2023/03/26 07:22:55;;;;;;;;;;;;;;;21.74;30.11;97172.34;4818063;29;1174;-75
2023/03/26 07:25:43;;;;;;;;;;;;;;;21.75;30.17;97170.31;4793556;29;1141;-74
2023/03/26 07:28:14;;;;;;;;;;;;;;;22.02;30.23;97169.59;4818240;29;1907;-75
2023/03/26 07:31:07;;;;;;;;;;;;;;;22.08;30.34;97164.91;4803922;29;990;-74
2023/03/26 07:34:00;;;;;;;;;;;;;;;22.05;29.77;97143.19;4897694;29;1090;-75
2023/03/26 07:36:49;;;;;;;;;;;;;;;21.88;30.06;97150.38;4869374;29;1166;-75
2023/03/26 07:39:56;;;;;;;;;;;;;;;21.77;30.36;97128.97;4860586;29;1006;-75
2023/03/26 07:42:51;;;;;;;;;;;;;;;21.79;30.00;97132.09;4870907;29;1578;-75
2023/03/26 07:45:38;;;;;;;;;;;;;;;22.12;30.34;97130.78;4916645;29;925;-75
2023/03/26 07:48:30;;;;;;;;;;;;;;;22.10;30.16;97117.06;4866383;29;1043;-75
2023/03/26 07:51:08;;;;;;;;;;;;;;;22.25;30.00;97112.38;4863505;29;1163;-74
2023/03/26 07:53:48;;;;;;;;;;;;;;;22.00;30.13;97112.63;4891399;29;1343;-75
2023/03/26 07:56:48;;;;;;;;;;;;;;;21.98;29.73;97109.50;4845615;29;1098;-75
2023/03/26 07:59:39;;;;;;;;;;;;;;;21.56;30.44;97105.13;4845575;29;939;-75
2023/03/26 08:02:26;;;;;;;;;;;;;;;21.46;30.48;97108.41;4844687;29;1312;-74
2023/03/26 08:05:09;;;;;;;;;;;;;;;22.32;30.08;97105.63;4845217;29;1331;-74
2023/03/26 08:08:10;;;;;;;;;;;;;;;22.34;29.55;97103.91;4845057;29;1970;-74
2023/03/26 08:10:49;;;;;;;;;;;;;;;22.23;29.78;97106.41;4854794;29;1222;-75
2023/03/26 08:13:20;;;;;;;;;;;;;;;21.95;30.13;97110.41;4878398;29;1423;-75
2023/03/26 08:15:46;;;;;;;;;;;;;;;21.87;30.02;97092.97;4879881;29;1020;-75
2023/03/26 08:18:30;;;;;;;;;;;;;;;21.89;30.10;97100.97;4879123;29;980;-74
2023/03/26 08:20:56;;;;;;;;;;;;;;;22.27;30.49;97098.53;4879303;29;1213;-75
2023/03/26 08:23:26;;;;;;;;;;;;;;;22.43;30.00;97093.81;4863822;29;1118;-74
2023/03/26 08:25:54;;;;;;;;;;;;;;;22.05;30.12;97103.53;4885567;29;1088;-74
2023/03/26 08:28:26;;;;;;;;;;;;;;;21.90;30.79;97117.50;4906260;29;1500;-75
2023/03/26 08:30:53;;;;;;;;;;;;;;;21.92;30.27;97119.88;4904190;29;1348;-74
2023/03/26 08:33:19;;;;;;;;;;;;;;;21.93;30.21;97129.94;4954001;28;955;-75
2023/03/26 08:35:45;;;;;;;;;;;;;;;21.64;31.03;97127.47;4981819;28;948;-74
2023/03/26 08:38:14;;;;;;;;;;;;;;;22.30;30.32;97130.81;4976956;28;996;-75
2023/03/26 08:41:00;;;;;;;;;;;;;;;22.38;30.29;97125.63;4960938;28;963;-75
2023/03/26 08:43:43;;;;;;;;;;;;;;;22.16;30.56;97120.88;4921952;29;1509;-75
2023/03/26 08:46:33;;;;;;;;;;;;;;;21.95;30.67;97121.75;4938364;29;1887;-75
2023/03/26 08:49:00;;;;;;;;;;;;;;;22.21;30.00;97133.63;4938384;29;984;-75
2023/03/26 08:51:34;;;;;;;;;;;;;;;21.73;30.79;97122.66;4938564;29;1067;-74
2023/03/26 08:54:22;;;;;;;;;;;;;;;22.42;30.63;97143.25;4922530;29;1271;-75
2023/03/26 08:56:52;;;;;;;;;;;;;;;22.43;30.51;97130.66;4881631;29;1285;-75
2023/03/26 08:59:30;;;;;;;;;;;;;;;22.20;30.36;97138.50;4865755;29;1433;-75
2023/03/26 09:02:07;;;;;;;;;;;;;;;21.93;30.71;97141.28;4881800;29;1067;-74
2023/03/26 09:04:35;;;;;;;;;;;;;;;21.90;30.35;97147.84;4865579;29;1322;-75
2023/03/26 09:07:19;;;;;;;;;;;;;;;21.82;30.41;97144.53;4880912;29;2043;-75
2023/03/26 09:09:57;;;;;;;;;;;;;;;21.92;31.04;97162.34;4881620;29;1244;-74
2023/03/26 09:12:41;;;;;;;;;;;;;;;22.32;30.61;97151.75;4876504;29;1486;-75
2023/03/26 09:15:25;;;;;;;;;;;;;;;22.47;30.27;97162.47;4891898;29;1077;-74
2023/03/26 09:17:53;;;;;;;;;;;;;;;21.53;31.48;97150.56;4900105;29;985;-74
2023/03/26 09:20:37;;;;;;;;;;;;;;;21.75;31.09;97156.16;4884416;29;1254;-74
2023/03/26 09:23:11;;;;;;;;;;;;;;;21.77;30.67;97157.28;4900088;29;1134;-75
2023/03/26 09:25:55;;;;;;;;;;;;;;;21.96;30.87;97165.81;4908615;29;1543;-74
2023/03/26 09:28:39;;;;;;;;;;;;;;;22.43;30.12;97167.50;4899633;29;1048;-74
2023/03/26 09:31:13;;;;;;;;;;;;;;;22.21;29.97;97113.81;4899835;29;1142;-75
2023/03/26 09:33:42;;;;;;;;;;;;;;;22.48;30.50;97159.16;4945352;28;1369;-75
2023/03/26 09:36:10;;;;;;;;;;;;;;;22.20;30.45;97161.19;4964635;28;1324;-74
2023/03/26 09:38:42;;;;;;;;;;;;;;;22.06;30.79;97161.75;4980402;28;975;-74
2023/03/26 09:41:16;;;;;;;;;;;;;;;22.30;30.22;97174.13;4964621;28;1141;-74
2023/03/26 09:44:00;;;;;;;;;;;;;;;21.77;30.95;97174.25;4964479;28;963;-75
2023/03/26 09:46:28;;;;;;;;;;;;;;;21.73;31.15;97179.28;4980067;28;1919;-75
2023/03/26 09:48:53;;;;;;;;;;;;;;;22.22;31.16;97192.66;4964101;28;1345;-74
2023/03/26 09:51:38;;;;;;;;;;;;;;;22.33;30.38;97186.56;4980128;28;1132;-74
2023/03/26 09:54:04;;;;;;;;;;;;;;;22.16;30.68;97188.09;4980091;28;1339;-75
2023/03/26 09:56:49;;;;;;;;;;;;;;;21.98;30.63;97194.47;4997533;28;914;-75
2023/03/26 09:59:33;;;;;;;;;;;;;;;21.92;30.62;97185.00;4980126;28;1144;-75
2023/03/26 10:02:03;;;;;;;;;;;;;;;21.80;30.77;97193.13;4964119;28;1406;-75
2023/03/26 10:04:32;;;;;;;;;;;;;;;21.77;30.70;97191.25;4989595;28;1407;-75
2023/03/26 10:07:00;;;;;;;;;;;;;;;22.08;30.96;97194.03;4999650;28;1923;-75
2023/03/26 10:09:32;;;;;;;;;;;;;;;22.44;30.37;97192.56;4997161;28;879;-75
2023/03/26 10:12:04;;;;;;;;;;;;;;;22.45;30.30;97196.19;4996972;28;950;-75
2023/03/26 10:14:29;;;;;;;;;;;;;;;22.03;30.65;97210.84;4996053;28;1027;-74
2023/03/26 10:17:14;;;;;;;;;;;;;;;22.01;30.47;97199.19;4981407;28;2052;-74
2023/03/26 10:19:52;;;;;;;;;;;;;;;21.61;30.97;97200.00;4998800;28;1460;-75
2023/03/26 10:22:24;;;;;;;;;;;;;;;21.70;30.64;97197.19;4983124;28;1143;-75
2023/03/26 10:24:53;;;;;;;;;;;;;;;22.12;31.09;97205.22;4982797;28;1293;-75
2023/03/26 10:27:42;;;;;;;;;;;;;;;22.55;30.00;97197.78;4998962;28;1910;-74
2023/03/26 10:30:17;;;;;;;;;;;;;;;22.12;30.50;97202.41;4936718;29;1034;-75
2023/03/26 10:32:48;;;;;;;;;;;;;;;21.94;30.82;97211.59;4936399;29;1137;-74
2023/03/26 10:35:16;;;;;;;;;;;;;;;21.78;30.57;97206.97;4930684;29;1337;-74
2023/03/26 10:38:00;;;;;;;;;;;;;;;21.91;30.28;97208.91;4901803;29;1119;-74
2023/03/26 10:40:41;;;;;;;;;;;;;;;21.62;30.98;97200.78;4917341;29;1049;-74
2023/03/26 10:43:25;;;;;;;;;;;;;;;22.30;30.47;97208.13;4886653;29;1211;-75
2023/03/26 10:45:51;;;;;;;;;;;;;;;22.49;30.05;97211.00;4901703;29;1134;-74
2023/03/26 10:48:19;;;;;;;;;;;;;;;22.07;30.32;97208.66;4917213;29;1923;-74
2023/03/26 10:50:44;;;;;;;;;;;;;;;22.11;29.95;97215.00;4917189;29;1477;-74
2023/03/26 10:53:17;;;;;;;;;;;;;;;21.93;30.30;97220.56;4917193;29;1468;-75
2023/03/26 10:55:46;;;;;;;;;;;;;;;21.78;30.53;97215.47;4901423;29;952;-75
2023/03/26 10:58:39;;;;;;;;;;;;;;;22.01;30.51;97224.69;4879361;29;1018;-75
2023/03/26 11:01:09;;;;;;;;;;;;;;;22.41;29.99;97215.38;4823820;29;1042;-75
2023/03/26 11:03:53;;;;;;;;;;;;;;;21.96;30.36;97225.28;4809010;29;1302;-74
2023/03/26 11:06:27;;;;;;;;;;;;;;;21.59;30.49;97219.47;4835060;29;1977;-75
2023/03/26 11:09:15;;;;;;;;;;;;;;;21.77;30.23;97213.91;4898055;29;1014;-74
2023/03/26 11:11:55;;;;;;;;;;;;;;;21.69;30.60;97235.25;4916532;29;1120;-74
2023/03/26 11:14:29;;;;;;;;;;;;;;;22.07;30.39;97217.16;4885652;29;1107;-75
2023/03/26 11:16:54;;;;;;;;;;;;;;;22.45;29.55;97216.03;4901120;29;988;-75
2023/03/26 11:19:26;;;;;;;;;;;;;;;22.08;30.05;97215.91;4910646;29;1496;-74
2023/03/26 11:22:01;;;;;;;;;;;;;;;21.84;30.18;97213.59;4882290;29;1166;-74
2023/03/26 11:24:32;;;;;;;;;;;;;;;21.96;30.08;97213.97;4867156;29;1170;-76
2023/03/26 11:27:00;;;;;;;;;;;;;;;21.90;29.90;97222.28;4898294;29;1906;-75
2023/03/26 11:29:35;;;;;;;;;;;;;;;22.06;30.31;97210.69;4859895;29;985;-75
2023/03/26 11:32:04;;;;;;;;;;;;;;;22.23;29.65;97208.44;4836603;29;989;-74
2023/03/26 11:34:37;;;;;;;;;;;;;;;22.02;30.11;97201.56;4828730;29;1348;-74
2023/03/26 11:37:04;;;;;;;;;;;;;;;21.75;30.14;97199.41;4882148;29;1265;-75
2023/03/26 11:39:32;;;;;;;;;;;;;;;21.92;29.91;97207.69;4842025;29;989;-74
2023/03/26 11:42:05;;;;;;;;;;;;;;;21.76;30.21;97197.34;4834692;29;1464;-74
2023/03/26 11:44:55;;;;;;;;;;;;;;;22.16;30.06;97196.59;4878636;29;1360;-74
2023/03/26 11:47:22;;;;;;;;;;;;;;;22.24;29.51;97195.03;4894511;29;1974;-76
2023/03/26 11:49:49;;;;;;;;;;;;;;;22.15;29.31;97198.63;4907329;29;1497;-75
2023/03/26 11:52:14;;;;;;;;;;;;;;;22.00;29.86;97191.94;4897658;29;936;-75
2023/03/26 11:54:42;;;;;;;;;;;;;;;22.02;29.39;97184.56;4878324;29;1327;-75
2023/03/26 11:57:11;;;;;;;;;;;;;;;21.73;30.18;97182.09;4906261;29;1730;-75
2023/03/26 11:59:42;;;;;;;;;;;;;;;22.06;29.96;97184.41;4891526;29;970;-74
2023/03/26 12:02:08;;;;;;;;;;;;;;;22.36;29.62;97189.22;4919664;29;1563;-75
2023/03/26 12:04:40;;;;;;;;;;;;;;;22.48;29.30;97186.72;4919680;29;1217;-75
2023/03/26 12:07:06;;;;;;;;;;;;;;;22.16;29.33;97194.53;4951219;29;1981;-75
2023/03/26 12:09:32;;;;;;;;;;;;;;;22.18;29.47;97186.38;4945140;28;1041;-74
2023/03/26 12:12:02;;;;;;;;;;;;;;;22.03;29.43;97196.69;4998119;28;917;-74
2023/03/26 12:14:29;;;;;;;;;;;;;;;21.87;29.42;97189.25;4973896;28;1242;-75
2023/03/26 12:16:57;;;;;;;;;;;;;;;21.76;29.81;97186.84;4973140;28;1029;-75
2023/03/26 12:19:24;;;;;;;;;;;;;;;22.21;29.62;97196.75;4974402;28;1009;-75
2023/03/26 12:21:50;;;;;;;;;;;;;;;22.34;29.05;97194.59;4935287;29;960;-74
2023/03/26 12:24:28;;;;;;;;;;;;;;;22.08;29.41;97187.59;4928590;29;1216;-74
2023/03/26 12:27:12;;;;;;;;;;;;;;;21.85;29.69;97191.75;4949275;28;1989;-75
2023/03/26 12:29:38;;;;;;;;;;;;;;;21.81;29.79;97193.91;4951971;29;1006;-75
2023/03/26 12:32:06;;;;;;;;;;;;;;;21.81;29.60;97191.91;4954415;28;1148;-75
2023/03/26 12:34:35;;;;;;;;;;;;;;;21.78;29.56;97187.16;4938580;29;994;-75
2023/03/26 12:37:00;;;;;;;;;;;;;;;21.77;29.51;97185.59;4938489;29;1059;-74
2023/03/26 12:39:28;;;;;;;;;;;;;;;22.29;29.20;97189.53;4939248;29;945;-74
2023/03/26 12:41:54;;;;;;;;;;;;;;;22.51;28.83;97185.78;4926079;29;960;-75
2023/03/26 12:44:25;;;;;;;;;;;;;;;22.13;29.04;97191.88;4941582;28;1352;-75
2023/03/26 12:46:52;;;;;;;;;;;;;;;21.87;29.66;97188.47;4977135;28;1971;-75
2023/03/26 12:49:18;;;;;;;;;;;;;;;21.89;29.31;97191.59;4958091;28;1108;-75
2023/03/26 12:51:48;;;;;;;;;;;;;;;21.71;29.54;97176.13;4946333;28;1070;-75
2023/03/26 12:54:27;;;;;;;;;;;;;;;21.99;29.71;97184.72;4994306;28;1438;-75
2023/03/26 12:57:11;;;;;;;;;;;;;;;22.28;28.88;97173.81;5018005;28;949;-74
2023/03/26 12:59:47;;;;;;;;;;;;;;;21.83;29.52;97178.06;5000710;28;916;-74
2023/03/26 13:02:31;;;;;;;;;;;;;;;21.90;29.44;97170.50;5000647;28;916;-74
2023/03/26 13:04:59;;;;;;;;;;;;;;;21.64;29.55;97167.13;5000336;28;1058;-74
2023/03/26 13:07:28;;;;;;;;;;;;;;;22.18;29.32;97162.94;5000922;28;1914;-74
2023/03/26 13:09:54;;;;;;;;;;;;;;;22.28;29.02;97161.69;4998896;28;920;-76
2023/03/26 13:12:19;;;;;;;;;;;;;;;22.12;29.12;97148.56;5003339;28;1315;-75
2023/03/26 13:14:48;;;;;;;;;;;;;;;21.98;29.23;97149.94;4998276;28;944;-74
2023/03/26 13:17:17;;;;;;;;;;;;;;;21.90;29.14;97154.31;4964533;28;989;-75
2023/03/26 13:19:43;;;;;;;;;;;;;;;21.94;28.82;97154.16;5013408;28;1353;-75
2023/03/26 13:22:24;;;;;;;;;;;;;;;21.82;29.27;97151.00;4997116;28;1624;-74
2023/03/26 13:24:50;;;;;;;;;;;;;;;21.83;29.50;97155.41;4965045;28;1239;-75
2023/03/26 13:27:19;;;;;;;;;;;;;;;22.29;28.73;97158.38;4995891;28;1910;-75
2023/03/26 13:30:03;;;;;;;;;;;;;;;22.14;28.75;97157.41;4964856;28;970;-76
2023/03/26 13:32:38;;;;;;;;;;;;;;;22.09;28.95;97155.16;4980663;28;1086;-74